createdAt,value
2017-11-03T00:00:16.037Z,99747.95
2017-11-03T00:02:42.659Z,99752.59
2017-11-03T00:05:08.590Z,99745.83
2017-11-03T00:07:34.523Z,99754.25
2017-11-03T00:10:00.457Z,99756.38
2017-11-03T00:12:26.591Z,99763.11
2017-11-03T00:14:52.521Z,99761.02
2017-11-03T00:17:18.505Z,99762.25
2017-11-03T00:19:44.481Z,99761.84
2017-11-03T00:22:10.423Z,99760.16
2017-11-03T00:24:36.344Z,99764.36
2017-11-03T00:27:02.303Z,99763.11
2017-11-03T00:29:28.247Z,99766.92
2017-11-03T00:31:54.223Z,99767.73
2017-11-03T00:34:20.252Z,99765.66
2017-11-03T00:36:46.206Z,99767.34
2017-11-03T00:39:12.125Z,99776.17
2017-11-03T00:41:38.063Z,99775.34
2017-11-03T00:44:03.987Z,99785.88
2017-11-03T00:46:29.948Z,99783.77
2017-11-03T00:48:55.886Z,99790.51
2017-11-03T00:51:21.849Z,99788.00
2017-11-03T00:53:47.818Z,99794.32
2017-11-03T00:56:13.763Z,99793.48
2017-11-03T00:58:39.711Z,99794.30
2017-11-03T01:01:05.639Z,99795.13
2017-11-03T01:03:31.563Z,99800.64
2017-11-03T01:05:57.483Z,99799.36
2017-11-03T01:08:23.408Z,99792.63
2017-11-03T01:10:49.367Z,99793.91
2017-11-03T01:13:15.360Z,99799.37
2017-11-03T01:15:41.311Z,99800.63
2017-11-03T01:18:07.328Z,99796.83
2017-11-03T01:20:33.279Z,99795.57
2017-11-03T01:22:59.416Z,99795.56
2017-11-03T01:25:25.351Z,99799.38
2017-11-03T01:27:51.299Z,99801.03
2017-11-03T01:30:17.243Z,99796.86
2017-11-03T01:32:43.183Z,99800.63
2017-11-03T01:35:09.187Z,99799.36
2017-11-03T01:37:35.115Z,99803.60
2017-11-03T01:40:01.051Z,99800.64
2017-11-03T01:42:26.984Z,99812.02
2017-11-03T01:44:52.941Z,99812.43
2017-11-03T01:47:18.886Z,99813.28
2017-11-03T01:49:44.835Z,99812.84
2017-11-03T01:52:10.772Z,99815.38
2017-11-03T01:54:36.719Z,99817.50
2017-11-03T01:57:02.651Z,99816.67
2017-11-03T01:59:28.617Z,99822.56
2017-11-03T02:01:54.555Z,99820.45
2017-11-03T02:04:20.475Z,99826.36
2017-11-03T02:06:46.421Z,99823.83
2017-11-03T02:09:12.347Z,99824.25
2017-11-03T02:11:38.276Z,99824.23
2017-11-03T02:14:04.196Z,99827.19
2017-11-03T02:16:30.115Z,99830.98
2017-11-03T02:18:56.039Z,99834.79
2017-11-03T02:21:22.267Z,99835.63
2017-11-03T02:23:48.214Z,99839.41
2017-11-03T02:26:14.149Z,99833.09
2017-11-03T02:28:40.081Z,99836.88
2017-11-03T02:31:06.007Z,99841.11
2017-11-03T02:33:31.926Z,99833.52
2017-11-03T02:35:57.860Z,99838.16
2017-11-03T02:38:23.777Z,99842.79
2017-11-03T02:40:49.715Z,99846.56
2017-11-03T02:43:15.657Z,99841.52
2017-11-03T02:45:41.581Z,99847.00
2017-11-03T02:48:07.523Z,99852.49
2017-11-03T02:50:33.519Z,99845.74
2017-11-03T02:52:59.452Z,99857.12
2017-11-03T02:55:25.374Z,99857.95
2017-11-03T02:57:51.322Z,99855.02
2017-11-03T03:00:17.247Z,99850.80
2017-11-03T03:02:43.198Z,99853.73
2017-11-03T03:05:09.119Z,99860.05
2017-11-03T03:07:35.035Z,99858.80
2017-11-03T03:10:00.966Z,99863.44
2017-11-03T03:12:26.925Z,99860.48
2017-11-03T03:14:52.847Z,99865.96
2017-11-03T03:17:18.763Z,99865.54
2017-11-03T03:19:44.691Z,99862.58
2017-11-03T03:22:10.637Z,99859.66
2017-11-03T03:24:36.561Z,99865.14
2017-11-03T03:27:02.505Z,99869.35
2017-11-03T03:29:28.430Z,99868.48
2017-11-03T03:31:54.351Z,99873.97
2017-11-03T03:34:20.287Z,99873.53
2017-11-03T03:36:46.207Z,99865.98
2017-11-03T03:39:12.150Z,99876.06
2017-11-03T03:41:38.074Z,99878.19
2017-11-03T03:44:03.995Z,99878.59
2017-11-03T03:46:29.939Z,99875.22
2017-11-03T03:48:55.875Z,99879.02
2017-11-03T03:51:21.795Z,99874.80
2017-11-03T03:53:47.791Z,99887.00
2017-11-03T03:56:13.727Z,99882.80
2017-11-03T03:58:39.659Z,99881.55
2017-11-03T04:01:05.591Z,99883.65
2017-11-03T04:03:31.515Z,99882.41
2017-11-03T04:05:57.455Z,99884.09
2017-11-03T04:08:23.387Z,99887.45
2017-11-03T04:10:49.325Z,99889.15
2017-11-03T04:13:15.247Z,99888.30
2017-11-03T04:15:41.212Z,99893.77
2017-11-03T04:18:07.133Z,99896.30
2017-11-03T04:20:33.059Z,99893.35
2017-11-03T04:22:58.987Z,99897.13
2017-11-03T04:25:24.903Z,99891.66
2017-11-03T04:27:50.824Z,99895.90
2017-11-03T04:30:16.767Z,99892.94
2017-11-03T04:32:42.703Z,99905.16
2017-11-03T04:35:08.630Z,99900.09
2017-11-03T04:37:34.571Z,99903.45
2017-11-03T04:40:00.535Z,99901.36
2017-11-03T04:42:26.455Z,99910.21
2017-11-03T04:44:52.440Z,99907.66
2017-11-03T04:47:18.399Z,99911.89
2017-11-03T04:49:44.327Z,99911.88
2017-11-03T04:52:10.309Z,99907.23
2017-11-03T04:54:36.325Z,99902.19
2017-11-03T04:57:02.339Z,99903.89
2017-11-03T04:59:28.271Z,99908.09
2017-11-03T05:01:54.205Z,99903.89
2017-11-03T05:04:20.203Z,99892.48
2017-11-03T05:06:46.147Z,99894.17
2017-11-03T05:09:12.089Z,99896.72
2017-11-03T05:11:38.023Z,99900.08
2017-11-03T05:14:03.979Z,99902.61
2017-11-03T05:16:29.907Z,99906.42
2017-11-03T05:18:55.830Z,99909.34
2017-11-03T05:21:21.755Z,99912.31
2017-11-03T05:23:47.675Z,99912.70
2017-11-03T05:26:13.636Z,99916.49
2017-11-03T05:28:39.568Z,99923.26
2017-11-03T05:31:05.521Z,99919.45
2017-11-03T05:33:31.446Z,99916.08
2017-11-03T05:35:57.380Z,99916.10
2017-11-03T05:38:23.335Z,99918.63
2017-11-03T05:40:49.279Z,99917.35
2017-11-03T05:43:15.209Z,99920.31
2017-11-03T05:45:41.131Z,99918.59
2017-11-03T05:48:07.059Z,99924.93
2017-11-03T05:50:32.979Z,99926.60
2017-11-03T05:52:58.909Z,99924.50
2017-11-03T05:55:24.889Z,99929.58
2017-11-03T05:57:50.855Z,99930.84
2017-11-03T06:00:16.784Z,99932.09
2017-11-03T06:02:42.726Z,99935.47
2017-11-03T06:05:08.666Z,99935.91
2017-11-03T06:07:34.634Z,99940.55
2017-11-03T06:10:00.559Z,99943.08
2017-11-03T06:12:26.497Z,99945.61
2017-11-03T06:14:52.456Z,99951.88
2017-11-03T06:17:18.388Z,99953.58
2017-11-03T06:19:44.367Z,99958.22
2017-11-03T06:22:10.298Z,99952.36
2017-11-03T06:24:36.237Z,99957.82
2017-11-03T06:27:02.189Z,99959.52
2017-11-03T06:29:28.118Z,99962.85
2017-11-03T06:31:54.044Z,99961.13
2017-11-03T06:34:19.981Z,99962.84
2017-11-03T06:36:45.939Z,99970.02
2017-11-03T06:39:11.870Z,99980.97
2017-11-03T06:41:37.818Z,99981.83
2017-11-03T06:44:03.756Z,99983.94
2017-11-03T06:46:29.670Z,99983.06
2017-11-03T06:48:55.612Z,99988.59
2017-11-03T06:51:21.552Z,99991.09
2017-11-03T06:53:47.492Z,99999.55
2017-11-03T06:56:13.632Z,100004.59
2017-11-03T06:58:39.563Z,100008.80
2017-11-03T07:01:05.513Z,100016.37
2017-11-03T07:03:31.454Z,100018.91
2017-11-03T07:05:57.404Z,100021.92
2017-11-03T07:08:23.355Z,100017.30
2017-11-03T07:10:49.282Z,100025.27
2017-11-03T07:13:15.234Z,100020.19
2017-11-03T07:15:41.177Z,100025.70
2017-11-03T07:18:07.133Z,100023.58
2017-11-03T07:20:33.074Z,100034.09
2017-11-03T07:22:59.007Z,100036.67
2017-11-03T07:25:24.953Z,100042.98
2017-11-03T07:27:50.902Z,100047.66
2017-11-03T07:30:16.828Z,100043.41
2017-11-03T07:32:42.765Z,100045.11
2017-11-03T07:35:08.702Z,100053.96
2017-11-03T07:37:34.671Z,100046.78
2017-11-03T07:40:00.610Z,100050.16
2017-11-03T07:42:26.554Z,100050.20
2017-11-03T07:44:52.496Z,100048.55
2017-11-03T07:47:18.441Z,100052.77
2017-11-03T07:49:44.379Z,100054.82
2017-11-03T07:52:10.343Z,100052.34
2017-11-03T07:54:36.289Z,100053.20
2017-11-03T07:57:02.235Z,100051.49
2017-11-03T07:59:28.162Z,100049.83
2017-11-03T08:01:54.094Z,100054.89
2017-11-03T08:04:20.056Z,100054.03
2017-11-03T08:06:45.995Z,100055.30
2017-11-03T08:09:11.925Z,100058.66
2017-11-03T08:11:37.868Z,100061.22
2017-11-03T08:14:03.790Z,100052.77
2017-11-03T08:16:29.727Z,100058.69
2017-11-03T08:18:55.676Z,100054.89
2017-11-03T08:21:21.647Z,100051.95
2017-11-03T08:23:47.600Z,100065.02
2017-11-03T08:26:13.580Z,100066.28
2017-11-03T08:28:39.522Z,100062.89
2017-11-03T08:31:05.496Z,100061.22
2017-11-03T08:33:31.414Z,100061.64
2017-11-03T08:35:57.348Z,100061.20
2017-11-03T08:38:23.270Z,100065.43
2017-11-03T08:40:49.208Z,100066.69
2017-11-03T08:43:15.148Z,100063.34
2017-11-03T08:45:41.091Z,100063.34
2017-11-03T08:48:07.131Z,100057.84
2017-11-03T08:50:33.076Z,100062.52
2017-11-03T08:52:59.022Z,100064.64
2017-11-03T08:55:24.988Z,100060.83
2017-11-03T08:57:50.918Z,100062.09
2017-11-03T09:00:16.894Z,100061.67
2017-11-03T09:02:42.852Z,100062.09
2017-11-03T09:05:08.797Z,100069.69
2017-11-03T09:07:34.792Z,100057.84
2017-11-03T09:10:00.734Z,100057.02
2017-11-03T09:12:26.678Z,100062.06
2017-11-03T09:14:52.624Z,100066.72
2017-11-03T09:17:18.586Z,100069.26
2017-11-03T09:19:44.554Z,100065.45
2017-11-03T09:22:10.504Z,100073.03
2017-11-03T09:24:36.526Z,100071.36
2017-11-03T09:27:02.457Z,100073.03
2017-11-03T09:29:28.402Z,100073.86
2017-11-03T09:31:54.345Z,100082.34
2017-11-03T09:34:20.270Z,100080.63
2017-11-03T09:36:46.202Z,100083.98
2017-11-03T09:39:12.137Z,100085.66
2017-11-03T09:41:38.099Z,100078.87
2017-11-03T09:44:04.033Z,100083.08
2017-11-03T09:46:29.978Z,100080.91
2017-11-03T09:48:56.860Z,100081.33
2017-11-03T09:51:22.791Z,100085.16
2017-11-03T09:53:48.749Z,100079.70
2017-11-03T09:56:14.687Z,100085.19
2017-11-03T09:58:40.633Z,100084.33
2017-11-03T10:01:06.626Z,100087.27
2017-11-03T10:03:32.600Z,100080.94
2017-11-03T10:05:58.568Z,100081.40
2017-11-03T10:08:24.524Z,100081.79
2017-11-03T10:10:50.504Z,100081.79
2017-11-03T10:13:16.466Z,100074.63
2017-11-03T10:15:42.406Z,100070.45
2017-11-03T10:18:08.441Z,100074.23
2017-11-03T10:20:34.380Z,100065.81
2017-11-03T10:23:00.313Z,100070.43
2017-11-03T10:25:26.277Z,100068.29
2017-11-03T10:27:52.218Z,100064.06
2017-11-03T10:30:18.155Z,100063.25
2017-11-03T10:32:44.090Z,100066.20
2017-11-03T10:35:10.034Z,100072.14
2017-11-03T10:37:35.980Z,100069.12
2017-11-03T10:40:01.921Z,100072.53
2017-11-03T10:42:27.868Z,100073.78
2017-11-03T10:44:53.822Z,100072.11
2017-11-03T10:47:19.777Z,100069.19
2017-11-03T10:49:45.714Z,100067.07
2017-11-03T10:52:11.677Z,100063.70
2017-11-03T10:54:37.651Z,100058.63
2017-11-03T10:57:03.619Z,100058.98
2017-11-03T10:59:29.594Z,100060.28
2017-11-03T11:01:55.543Z,100063.64
2017-11-03T11:04:21.479Z,100063.64
2017-11-03T11:06:48.459Z,100056.05
2017-11-03T11:09:14.498Z,100059.90
2017-11-03T11:11:40.470Z,100053.13
2017-11-03T11:14:06.428Z,100055.23
2017-11-03T11:16:32.386Z,100054.00
2017-11-03T11:18:58.354Z,100052.32
2017-11-03T11:21:24.283Z,100051.03
2017-11-03T11:23:50.248Z,100045.98
2017-11-03T11:26:16.218Z,100048.50
2017-11-03T11:28:42.172Z,100042.57
2017-11-03T11:31:08.122Z,100040.87
2017-11-03T11:33:34.063Z,100043.38
2017-11-03T11:36:00.007Z,100041.70
2017-11-03T11:38:25.937Z,100044.16
2017-11-03T11:40:51.872Z,100042.84
2017-11-03T11:43:17.833Z,100041.59
2017-11-03T11:45:43.759Z,100036.45
2017-11-03T11:48:09.693Z,100036.07
2017-11-03T11:50:35.685Z,100032.23
2017-11-03T11:53:01.629Z,100036.89
2017-11-03T11:55:27.574Z,100039.44
2017-11-03T11:57:53.523Z,100039.48
2017-11-03T12:00:19.480Z,100039.90
2017-11-03T12:02:45.416Z,100039.08
2017-11-03T12:05:11.383Z,100036.95
2017-11-03T12:07:37.318Z,100031.44
2017-11-03T12:10:03.252Z,100032.70
2017-11-03T12:12:29.204Z,100029.74
2017-11-03T12:14:55.143Z,100032.69
2017-11-03T12:17:21.112Z,100031.85
2017-11-03T12:19:47.055Z,100028.41
2017-11-03T12:22:12.980Z,100027.14
2017-11-03T12:24:38.928Z,100024.63
2017-11-03T12:27:04.872Z,100026.78
2017-11-03T12:29:30.881Z,100036.02
2017-11-03T12:31:56.810Z,100033.06
2017-11-03T12:34:22.768Z,100035.17
2017-11-03T12:36:48.728Z,100033.08
2017-11-03T12:39:14.669Z,100034.32
2017-11-03T12:41:40.604Z,100033.03
2017-11-03T12:44:06.536Z,100027.98
2017-11-03T12:46:32.469Z,100030.10
2017-11-03T12:48:58.463Z,100026.27
2017-11-03T12:51:24.412Z,100019.09
2017-11-03T12:53:50.356Z,100022.06
2017-11-03T12:56:16.312Z,100022.91
2017-11-03T12:58:45.567Z,100022.52
2017-11-03T13:01:11.509Z,100014.00
2017-11-03T13:03:37.446Z,100024.19
2017-11-03T13:06:03.389Z,100017.00
2017-11-03T13:08:29.360Z,100013.25
2017-11-03T13:10:55.299Z,100023.34
2017-11-03T13:13:21.234Z,100018.69
2017-11-03T13:15:47.197Z,100017.44
2017-11-03T13:18:13.159Z,100010.23
2017-11-03T13:20:39.097Z,100016.56
2017-11-03T13:23:05.063Z,100011.48
2017-11-03T13:25:30.997Z,100015.30
2017-11-03T13:27:56.959Z,100015.62
2017-11-03T13:30:22.897Z,100009.77
2017-11-03T13:32:48.907Z,100008.92
2017-11-03T13:35:14.848Z,100013.52
2017-11-03T13:37:40.815Z,100005.52
2017-11-03T13:40:06.792Z,100009.74
2017-11-03T13:42:32.739Z,100009.27
2017-11-03T13:44:58.715Z,100007.66
2017-11-03T13:47:24.642Z,100000.45
2017-11-03T13:49:50.581Z,99998.37
2017-11-03T13:52:16.523Z,100002.17
2017-11-03T13:54:42.465Z,99998.29
2017-11-03T13:57:08.445Z,100000.45
2017-11-03T13:59:34.391Z,100001.33
2017-11-03T14:02:00.359Z,99992.89
2017-11-03T14:04:26.301Z,100003.06
2017-11-03T14:06:52.238Z,100000.09
2017-11-03T14:09:18.216Z,100001.83
2017-11-03T14:11:44.166Z,100001.34
2017-11-03T14:14:10.109Z,100003.52
2017-11-03T14:16:36.049Z,100005.66
2017-11-03T14:19:02.053Z,100001.44
2017-11-03T14:21:28.014Z,100003.11
2017-11-03T14:23:53.958Z,99996.83
2017-11-03T14:26:19.907Z,100007.38
2017-11-03T14:28:45.859Z,100000.20
2017-11-03T14:31:11.825Z,100001.38
2017-11-03T14:33:37.751Z,99995.06
2017-11-03T14:36:03.763Z,100003.58
2017-11-03T14:38:29.749Z,100003.53
2017-11-03T14:40:55.673Z,99999.33
2017-11-03T14:43:21.623Z,99994.25
2017-11-03T14:45:47.547Z,99989.65
2017-11-03T14:48:13.572Z,99988.84
2017-11-03T14:50:39.520Z,99994.67
2017-11-03T14:53:05.472Z,99992.93
2017-11-03T14:55:31.433Z,99987.86
2017-11-03T14:57:57.505Z,99990.80
2017-11-03T15:00:23.475Z,99988.77
2017-11-03T15:02:49.492Z,99989.68
2017-11-03T15:05:15.466Z,99991.41
2017-11-03T15:07:41.422Z,99985.87
2017-11-03T15:10:07.373Z,99988.77
2017-11-03T15:12:33.485Z,99983.44
2017-11-03T15:14:59.655Z,99978.41
2017-11-03T15:17:25.673Z,99977.58
2017-11-03T15:19:51.639Z,99976.30
2017-11-03T15:22:17.650Z,99975.94
2017-11-03T15:24:43.679Z,99971.72
2017-11-03T15:27:09.613Z,99972.03
2017-11-03T15:29:35.571Z,99970.41
2017-11-03T15:32:01.503Z,99972.59
2017-11-03T15:34:27.485Z,99965.39
2017-11-03T15:36:53.588Z,99973.88
2017-11-03T15:39:19.569Z,99973.48
2017-11-03T15:41:45.591Z,99972.18
2017-11-03T15:44:11.534Z,99970.51
2017-11-03T15:46:37.535Z,99977.25
2017-11-03T15:49:03.488Z,99972.20
2017-11-03T15:51:29.489Z,99976.41
2017-11-03T15:53:55.421Z,99981.89
2017-11-03T15:56:21.405Z,99976.84
2017-11-03T15:58:47.353Z,99977.27
2017-11-03T16:01:13.357Z,99984.45
2017-11-03T16:03:39.327Z,99987.39
2017-11-03T16:06:05.349Z,99983.57
2017-11-03T16:08:31.358Z,99989.89
2017-11-03T16:10:57.379Z,99991.59
2017-11-03T16:13:23.315Z,99993.26
2017-11-03T16:15:49.262Z,99996.59
2017-11-03T16:18:15.347Z,99999.13
2017-11-03T16:20:41.333Z,99998.30
2017-11-03T16:23:07.315Z,99994.93
2017-11-03T16:25:33.349Z,99995.78
2017-11-03T16:27:59.290Z,99990.65
2017-11-03T16:30:25.257Z,99990.66
2017-11-03T16:32:52.072Z,99994.49
2017-11-03T16:35:18.015Z,99992.75
2017-11-03T16:37:43.963Z,99991.38
2017-11-03T16:40:09.972Z,99989.80
2017-11-03T16:42:36.003Z,99990.64
2017-11-03T16:45:02.013Z,99998.45
2017-11-03T16:47:27.977Z,99993.52
2017-11-03T16:49:53.975Z,99992.19
2017-11-03T16:52:19.943Z,99994.31
2017-11-03T16:54:45.887Z,99989.59
2017-11-03T16:57:11.820Z,99994.22
2017-11-03T16:59:37.743Z,99996.71
2017-11-03T17:02:03.722Z,99993.27
2017-11-03T17:04:29.651Z,99997.25
2017-11-03T17:06:55.629Z,99994.30
2017-11-03T17:09:21.574Z,99991.15
2017-11-03T17:11:47.517Z,99999.17
2017-11-03T17:14:13.473Z,100001.35
2017-11-03T17:16:39.412Z,100002.73
2017-11-03T17:19:05.366Z,100001.34
2017-11-03T17:21:31.311Z,99999.20
2017-11-03T17:23:57.262Z,99996.30
2017-11-03T17:26:23.205Z,99998.45
2017-11-03T17:28:49.216Z,99991.69
2017-11-03T17:31:15.191Z,99984.40
2017-11-03T17:33:41.150Z,99982.30
2017-11-03T17:36:07.142Z,99977.66
2017-11-03T17:38:33.092Z,99984.63
2017-11-03T17:40:59.049Z,99983.11
2017-11-03T17:43:25.069Z,99988.98
2017-11-03T17:45:51.019Z,99993.10
2017-11-03T17:48:16.965Z,99991.54
2017-11-03T17:50:42.916Z,99991.95
2017-11-03T17:53:08.948Z,99997.91
2017-11-03T17:55:34.898Z,99997.59
2017-11-03T17:58:00.851Z,100005.17
2017-11-03T18:00:26.841Z,100001.58
2017-11-03T18:02:52.781Z,99987.54
2017-11-03T18:05:18.737Z,99989.34
2017-11-03T18:07:44.811Z,99981.65
2017-11-03T18:10:10.767Z,99980.71
2017-11-03T18:12:36.952Z,99985.02
2017-11-03T18:15:02.911Z,99979.94
2017-11-03T18:17:28.875Z,99984.23
2017-11-03T18:19:54.822Z,99976.23
2017-11-03T18:22:20.941Z,99976.70
2017-11-03T18:24:46.939Z,99969.04
2017-11-03T18:27:12.983Z,99970.64
2017-11-03T18:29:39.006Z,99968.97
2017-11-03T18:32:04.980Z,99964.66
2017-11-03T18:34:30.939Z,99968.55
2017-11-03T18:36:56.919Z,99966.26
2017-11-03T18:39:22.860Z,99965.66
2017-11-03T18:41:48.812Z,99965.20
2017-11-03T18:44:14.803Z,99961.69
2017-11-03T18:46:40.743Z,99962.66
2017-11-03T18:49:06.699Z,99956.20
2017-11-03T18:51:32.653Z,99957.16
2017-11-03T18:53:58.864Z,99957.33
2017-11-03T18:56:24.842Z,99967.74
2017-11-03T18:58:50.893Z,99958.64
2017-11-03T19:01:16.835Z,99960.09
2017-11-03T19:03:42.800Z,99959.31
2017-11-03T19:06:08.987Z,99962.80
2017-11-03T19:08:34.931Z,99961.55
2017-11-03T19:11:00.890Z,99960.83
2017-11-03T19:13:26.861Z,99965.90
2017-11-03T19:15:52.880Z,99961.77
2017-11-03T19:18:18.939Z,99967.64
2017-11-03T19:20:44.886Z,99970.53
2017-11-03T19:23:10.873Z,99967.77
2017-11-03T19:25:36.896Z,99965.26
2017-11-03T19:28:02.868Z,99960.53
2017-11-03T19:30:28.818Z,99961.34
2017-11-03T19:32:54.879Z,99962.45
2017-11-03T19:35:21.051Z,99960.27
2017-11-03T19:37:47.023Z,99956.03
2017-11-03T19:40:12.957Z,99957.45
2017-11-03T19:42:38.938Z,99960.92
2017-11-03T19:45:05.490Z,99957.88
2017-11-03T19:47:31.465Z,99955.46
2017-11-03T19:49:57.440Z,99958.07
2017-11-03T19:52:23.489Z,99956.66
2017-11-03T19:54:49.812Z,99954.56
2017-11-03T19:57:15.793Z,99957.22
2017-11-03T19:59:41.750Z,99949.39
2017-11-03T20:02:07.692Z,99942.56
2017-11-03T20:04:33.623Z,99953.52
2017-11-03T20:06:59.581Z,99957.48
2017-11-03T20:09:25.614Z,99958.25
2017-11-03T20:11:51.569Z,99950.98
2017-11-03T20:14:17.541Z,99950.55
2017-11-03T20:16:43.580Z,99955.31
2017-11-03T20:19:09.601Z,99951.43
2017-11-03T20:21:35.560Z,99951.98
2017-11-03T20:24:02.577Z,99953.44
2017-11-03T20:26:28.907Z,99957.11
2017-11-03T20:28:54.913Z,99957.11
2017-11-03T20:31:20.893Z,99957.80
2017-11-03T20:33:47.126Z,99963.40
2017-11-03T20:36:13.144Z,99959.29
2017-11-03T20:38:39.100Z,99961.90
2017-11-03T20:41:05.076Z,99961.33
2017-11-03T20:43:31.385Z,99960.34
2017-11-03T20:45:57.340Z,99961.86
2017-11-03T20:48:23.374Z,99955.13
2017-11-03T20:50:49.743Z,99962.22
2017-11-03T20:53:15.683Z,99962.78
2017-11-03T20:55:43.070Z,99958.12
2017-11-03T20:58:09.222Z,99951.98
2017-11-03T21:00:35.298Z,99953.64
2017-11-03T21:03:01.533Z,99952.31
2017-11-03T21:05:27.644Z,99953.22
2017-11-03T21:07:53.891Z,99949.45
2017-11-03T21:10:20.298Z,99948.86
2017-11-03T21:12:46.576Z,99945.11
2017-11-03T21:15:12.521Z,99942.73
2017-11-03T21:17:38.839Z,99943.93
2017-11-03T21:20:04.996Z,99938.94
2017-11-03T21:22:30.984Z,99932.27
2017-11-03T21:24:57.638Z,99941.47
2017-11-03T21:27:23.595Z,99943.88
2017-11-03T21:29:49.558Z,99928.70
2017-11-03T21:32:15.508Z,99921.52
2017-11-03T21:34:41.532Z,99921.03
2017-11-03T21:37:07.508Z,99924.99
2017-11-03T21:39:33.562Z,99919.45
2017-11-03T21:41:59.528Z,99922.01
2017-11-03T21:44:25.639Z,99919.52
2017-11-03T21:46:51.715Z,99919.03
2017-11-03T21:49:17.705Z,99909.13
2017-11-03T21:51:43.833Z,99917.39
2017-11-03T21:54:09.788Z,99912.13
2017-11-03T21:56:35.795Z,99911.41
2017-11-03T21:59:01.764Z,99907.06
2017-11-03T22:01:27.809Z,99907.17
2017-11-03T22:03:53.736Z,99905.72
2017-11-03T22:06:19.662Z,99911.64
2017-11-03T22:08:45.585Z,99911.69
2017-11-03T22:11:11.523Z,99905.56
2017-11-03T22:13:37.527Z,99909.33
2017-11-03T22:16:04.573Z,99911.02
2017-11-03T22:18:30.560Z,99916.42
2017-11-03T22:20:56.538Z,99910.66
2017-11-03T22:23:22.474Z,99909.69
2017-11-03T22:25:48.418Z,99909.42
2017-11-03T22:28:14.376Z,99905.00
2017-11-03T22:30:40.392Z,99905.52
2017-11-03T22:33:06.324Z,99898.90
2017-11-03T22:35:32.362Z,99899.51
2017-11-03T22:37:58.313Z,99908.89
2017-11-03T22:40:24.256Z,99902.47
2017-11-03T22:42:50.204Z,99906.84
2017-11-03T22:45:16.170Z,99910.57
2017-11-03T22:47:42.094Z,99915.61
2017-11-03T22:50:08.057Z,99914.22
2017-11-03T22:52:34.038Z,99913.59
2017-11-03T22:54:59.965Z,99913.72
2017-11-03T22:57:25.897Z,99908.57
2017-11-03T22:59:51.868Z,99898.19
2017-11-03T23:02:17.843Z,99898.92
2017-11-03T23:04:43.805Z,99894.81
2017-11-03T23:07:09.749Z,99895.31
2017-11-03T23:09:35.700Z,99894.16
2017-11-03T23:12:01.629Z,99895.92
2017-11-03T23:14:27.579Z,99894.13
2017-11-03T23:16:53.520Z,99893.40
2017-11-03T23:19:19.474Z,99891.09
2017-11-03T23:21:45.437Z,99888.89
2017-11-03T23:24:11.420Z,99894.33
2017-11-03T23:26:37.388Z,99895.51
2017-11-03T23:29:03.339Z,99896.30
2017-11-03T23:31:29.332Z,99893.87
2017-11-03T23:33:55.300Z,99886.78
2017-11-03T23:36:21.238Z,99889.79
2017-11-03T23:38:48.033Z,99890.28
2017-11-03T23:41:13.964Z,99887.86
2017-11-03T23:43:40.031Z,99890.71
2017-11-03T23:46:06.018Z,99890.95
2017-11-03T23:48:32.008Z,99885.86
2017-11-03T23:50:58.005Z,99882.06
2017-11-03T23:53:24.761Z,99883.61
2017-11-03T23:55:50.688Z,99880.39
2017-11-03T23:58:16.756Z,99882.98
